sensor_id;sensor_type;location;lat;lon;timestamp;temperature;humidity
68480;DHT22;55469;48.934;12.050;2024-03-23T00:53:27;11.30;99.90
68480;DHT22;55469;48.934;12.050;2024-03-23T00:55:54;11.30;99.90
68480;DHT22;55469;48.934;12.050;2024-03-23T00:58:19;11.30;99.90
68480;DHT22;55469;48.934;12.050;2024-03-23T01:00:45;11.30;99.90
68480;DHT22;55469;48.934;12.050;2024-03-23T01:03:10;11.30;99.90
68480;DHT22;55469;48.934;12.050;2024-03-23T01:05:36;11.30;99.90
68480;DHT22;55469;48.934;12.050;2024-03-23T01:08:02;11.30;99.90
68480;DHT22;55469;48.934;12.050;2024-03-23T01:10:27;11.20;99.90
68480;DHT22;55469;48.934;12.050;2024-03-23T01:12:53;11.20;99.90
68480;DHT22;55469;48.934;12.050;2024-03-23T01:15:18;11.20;99.90
68480;DHT22;55469;48.934;12.050;2024-03-23T01:17:44;11.20;99.90
68480;DHT22;55469;48.934;12.050;2024-03-23T01:20:10;11.20;99.90
68480;DHT22;55469;48.934;12.050;2024-03-23T01:22:35;11.10;99.90
68480;DHT22;55469;48.934;12.050;2024-03-23T01:25:01;11.10;99.90
68480;DHT22;55469;48.934;12.050;2024-03-23T01:27:27;11.10;99.90
68480;DHT22;55469;48.934;12.050;2024-03-23T01:29:53;11.10;99.90
68480;DHT22;55469;48.934;12.050;2024-03-23T01:32:19;11.10;99.90
68480;DHT22;55469;48.934;12.050;2024-03-23T01:34:44;11.00;99.90
68480;DHT22;55469;48.934;12.050;2024-03-23T01:37:10;11.00;99.90
68480;DHT22;55469;48.934;12.050;2024-03-23T01:39:35;11.00;99.90
68480;DHT22;55469;48.934;12.050;2024-03-23T01:42:01;11.00;99.90
68480;DHT22;55469;48.934;12.050;2024-03-23T01:44:27;11.00;99.90
68480;DHT22;55469;48.934;12.050;2024-03-23T01:46:52;11.00;99.90
68480;DHT22;55469;48.934;12.050;2024-03-23T01:49:18;10.90;99.90
68480;DHT22;55469;48.934;12.050;2024-03-23T01:51:44;10.90;99.90
68480;DHT22;55469;48.934;12.050;2024-03-23T01:54:10;10.90;99.90
68480;DHT22;55469;48.934;12.050;2024-03-23T01:56:35;11.00;99.90
68480;DHT22;55469;48.934;12.050;2024-03-23T01:59:04;10.90;99.90
68480;DHT22;55469;48.934;12.050;2024-03-23T02:01:31;10.90;99.90
68480;DHT22;55469;48.934;12.050;2024-03-23T02:03:57;10.90;99.90
68480;DHT22;55469;48.934;12.050;2024-03-23T02:06:23;10.90;99.90
68480;DHT22;55469;48.934;12.050;2024-03-23T02:08:49;10.90;99.90
68480;DHT22;55469;48.934;12.050;2024-03-23T02:11:15;10.90;99.90
68480;DHT22;55469;48.934;12.050;2024-03-23T02:13:40;10.80;99.90
68480;DHT22;55469;48.934;12.050;2024-03-23T02:16:06;10.90;99.90
68480;DHT22;55469;48.934;12.050;2024-03-23T02:18:32;10.80;99.90
68480;DHT22;55469;48.934;12.050;2024-03-23T02:20:58;10.80;99.90
68480;DHT22;55469;48.934;12.050;2024-03-23T02:23:23;10.80;99.90
68480;DHT22;55469;48.934;12.050;2024-03-23T02:25:50;10.70;99.90
68480;DHT22;55469;48.934;12.050;2024-03-23T02:28:16;10.70;99.90
68480;DHT22;55469;48.934;12.050;2024-03-23T02:30:42;10.70;99.90
68480;DHT22;55469;48.934;12.050;2024-03-23T02:33:08;10.70;99.90
68480;DHT22;55469;48.934;12.050;2024-03-23T02:35:34;10.70;99.90
68480;DHT22;55469;48.934;12.050;2024-03-23T02:38:02;10.70;99.90
68480;DHT22;55469;48.934;12.050;2024-03-23T02:40:28;10.60;99.90
68480;DHT22;55469;48.934;12.050;2024-03-23T02:42:54;10.60;99.90
68480;DHT22;55469;48.934;12.050;2024-03-23T02:45:20;10.60;99.90
68480;DHT22;55469;48.934;12.050;2024-03-23T02:47:46;10.60;99.90
68480;DHT22;55469;48.934;12.050;2024-03-23T02:50:11;10.60;99.90
68480;DHT22;55469;48.934;12.050;2024-03-23T02:52:37;10.60;99.90
68480;DHT22;55469;48.934;12.050;2024-03-23T02:55:03;10.60;99.90
68480;DHT22;55469;48.934;12.050;2024-03-23T02:57:29;10.60;99.90
68480;DHT22;55469;48.934;12.050;2024-03-23T02:59:55;10.60;99.90
68480;DHT22;55469;48.934;12.050;2024-03-23T03:02:21;10.50;99.90
68480;DHT22;55469;48.934;12.050;2024-03-23T03:04:47;10.50;99.90
68480;DHT22;55469;48.934;12.050;2024-03-23T03:07:13;10.50;99.90
68480;DHT22;55469;48.934;12.050;2024-03-23T03:09:39;10.50;99.90
68480;DHT22;55469;48.934;12.050;2024-03-23T03:12:05;10.50;99.90
68480;DHT22;55469;48.934;12.050;2024-03-23T03:14:31;10.40;99.90
68480;DHT22;55469;48.934;12.050;2024-03-23T03:16:56;10.40;99.90
68480;DHT22;55469;48.934;12.050;2024-03-23T03:19:22;10.40;99.90
68480;DHT22;55469;48.934;12.050;2024-03-23T03:21:48;10.40;99.90
68480;DHT22;55469;48.934;12.050;2024-03-23T03:24:13;10.40;99.90
68480;DHT22;55469;48.934;12.050;2024-03-23T03:26:39;10.40;99.90
68480;DHT22;55469;48.934;12.050;2024-03-23T03:29:05;10.40;99.90
68480;DHT22;55469;48.934;12.050;2024-03-23T03:31:30;10.40;99.90
68480;DHT22;55469;48.934;12.050;2024-03-23T03:33:56;10.30;99.90
68480;DHT22;55469;48.934;12.050;2024-03-23T03:36:22;10.30;99.90
68480;DHT22;55469;48.934;12.050;2024-03-23T03:38:47;10.30;99.90
68480;DHT22;55469;48.934;12.050;2024-03-23T03:41:13;10.30;99.90
68480;DHT22;55469;48.934;12.050;2024-03-23T03:43:38;10.30;99.90
68480;DHT22;55469;48.934;12.050;2024-03-23T03:46:04;10.30;99.90
68480;DHT22;55469;48.934;12.050;2024-03-23T03:48:30;10.30;99.90
68480;DHT22;55469;48.934;12.050;2024-03-23T03:50:55;10.30;99.90
68480;DHT22;55469;48.934;12.050;2024-03-23T03:53:21;10.30;99.90
68480;DHT22;55469;48.934;12.050;2024-03-23T03:55:47;10.30;99.90
68480;DHT22;55469;48.934;12.050;2024-03-23T03:58:12;10.20;99.90
68480;DHT22;55469;48.934;12.050;2024-03-23T04:00:38;10.30;99.90
68480;DHT22;55469;48.934;12.050;2024-03-23T04:03:03;10.20;99.90
68480;DHT22;55469;48.934;12.050;2024-03-23T04:05:29;10.20;99.90
68480;DHT22;55469;48.934;12.050;2024-03-23T04:07:55;10.20;99.90
68480;DHT22;55469;48.934;12.050;2024-03-23T04:10:21;10.20;99.90
68480;DHT22;55469;48.934;12.050;2024-03-23T04:12:47;10.20;99.90
68480;DHT22;55469;48.934;12.050;2024-03-23T04:15:13;10.20;99.90
68480;DHT22;55469;48.934;12.050;2024-03-23T04:17:39;10.20;99.90
68480;DHT22;55469;48.934;12.050;2024-03-23T04:20:06;10.20;99.90
68480;DHT22;55469;48.934;12.050;2024-03-23T04:22:39;10.20;99.90
68480;DHT22;55469;48.934;12.050;2024-03-23T04:25:05;10.20;99.90
68480;DHT22;55469;48.934;12.050;2024-03-23T04:27:36;10.10;99.90
68480;DHT22;55469;48.934;12.050;2024-03-23T04:30:02;10.10;99.90
68480;DHT22;55469;48.934;12.050;2024-03-23T04:32:29;10.10;99.90
68480;DHT22;55469;48.934;12.050;2024-03-23T04:34:55;10.10;99.90
68480;DHT22;55469;48.934;12.050;2024-03-23T04:37:21;10.10;99.90
68480;DHT22;55469;48.934;12.050;2024-03-23T04:39:47;10.10;99.90
68480;DHT22;55469;48.934;12.050;2024-03-23T04:42:14;10.10;99.90
68480;DHT22;55469;48.934;12.050;2024-03-23T04:44:40;10.10;99.90
68480;DHT22;55469;48.934;12.050;2024-03-23T04:47:06;10.10;99.90
68480;DHT22;55469;48.934;12.050;2024-03-23T04:49:32;10.10;99.90
68480;DHT22;55469;48.934;12.050;2024-03-23T04:51:57;10.10;99.90
68480;DHT22;55469;48.934;12.050;2024-03-23T04:54:23;10.00;99.90
68480;DHT22;55469;48.934;12.050;2024-03-23T04:56:49;10.10;99.90
68480;DHT22;55469;48.934;12.050;2024-03-23T04:59:15;10.10;99.90
68480;DHT22;55469;48.934;12.050;2024-03-23T05:01:41;10.00;99.90
68480;DHT22;55469;48.934;12.050;2024-03-23T05:04:07;10.00;99.90
68480;DHT22;55469;48.934;12.050;2024-03-23T05:06:33;10.00;99.90
68480;DHT22;55469;48.934;12.050;2024-03-23T05:08:59;10.00;99.90
68480;DHT22;55469;48.934;12.050;2024-03-23T05:11:31;10.00;99.90
68480;DHT22;55469;48.934;12.050;2024-03-23T05:13:57;10.00;99.90
68480;DHT22;55469;48.934;12.050;2024-03-23T05:16:23;10.00;99.90
68480;DHT22;55469;48.934;12.050;2024-03-23T05:18:48;10.00;99.90
68480;DHT22;55469;48.934;12.050;2024-03-23T05:21:14;10.00;99.90
68480;DHT22;55469;48.934;12.050;2024-03-23T05:23:40;10.00;99.90
68480;DHT22;55469;48.934;12.050;2024-03-23T05:26:05;10.00;99.90
68480;DHT22;55469;48.934;12.050;2024-03-23T05:28:31;9.90;99.90
68480;DHT22;55469;48.934;12.050;2024-03-23T05:30:57;9.90;99.90
68480;DHT22;55469;48.934;12.050;2024-03-23T05:33:22;9.90;99.90
68480;DHT22;55469;48.934;12.050;2024-03-23T05:35:56;10.00;99.90
68480;DHT22;55469;48.934;12.050;2024-03-23T05:38:22;9.90;99.90
68480;DHT22;55469;48.934;12.050;2024-03-23T05:40:54;10.00;99.90
68480;DHT22;55469;48.934;12.050;2024-03-23T05:43:21;10.00;99.90
68480;DHT22;55469;48.934;12.050;2024-03-23T05:45:53;10.00;99.90
68480;DHT22;55469;48.934;12.050;2024-03-23T05:48:19;10.00;99.90
68480;DHT22;55469;48.934;12.050;2024-03-23T05:50:44;10.00;99.90
68480;DHT22;55469;48.934;12.050;2024-03-23T05:53:10;10.00;99.90
68480;DHT22;55469;48.934;12.050;2024-03-23T05:55:36;10.00;99.90
68480;DHT22;55469;48.934;12.050;2024-03-23T05:58:01;10.00;99.90
68480;DHT22;55469;48.934;12.050;2024-03-23T06:00:27;10.00;99.90
68480;DHT22;55469;48.934;12.050;2024-03-23T06:02:52;10.00;99.90
68480;DHT22;55469;48.934;12.050;2024-03-23T06:05:18;10.00;99.90
68480;DHT22;55469;48.934;12.050;2024-03-23T06:07:44;10.00;99.90
68480;DHT22;55469;48.934;12.050;2024-03-23T06:10:09;9.90;99.90
68480;DHT22;55469;48.934;12.050;2024-03-23T06:12:35;10.00;99.90
68480;DHT22;55469;48.934;12.050;2024-03-23T06:15:00;9.90;99.90
68480;DHT22;55469;48.934;12.050;2024-03-23T06:17:26;10.00;99.90
68480;DHT22;55469;48.934;12.050;2024-03-23T06:19:52;9.90;99.90
68480;DHT22;55469;48.934;12.050;2024-03-23T06:22:17;9.90;99.90
68480;DHT22;55469;48.934;12.050;2024-03-23T06:24:43;9.90;99.90
68480;DHT22;55469;48.934;12.050;2024-03-23T06:27:09;9.90;99.90
68480;DHT22;55469;48.934;12.050;2024-03-23T06:29:35;9.90;99.90
68480;DHT22;55469;48.934;12.050;2024-03-23T06:32:01;9.90;99.90
68480;DHT22;55469;48.934;12.050;2024-03-23T06:34:27;9.90;99.90
68480;DHT22;55469;48.934;12.050;2024-03-23T06:36:53;9.90;99.90
68480;DHT22;55469;48.934;12.050;2024-03-23T06:39:18;9.90;99.90
68480;DHT22;55469;48.934;12.050;2024-03-23T06:41:45;9.90;99.90
68480;DHT22;55469;48.934;12.050;2024-03-23T06:44:17;9.90;99.90
68480;DHT22;55469;48.934;12.050;2024-03-23T06:46:42;9.90;99.90
68480;DHT22;55469;48.934;12.050;2024-03-23T06:49:08;9.90;99.90
68480;DHT22;55469;48.934;12.050;2024-03-23T06:51:34;9.90;99.90
68480;DHT22;55469;48.934;12.050;2024-03-23T06:53:59;9.90;99.90
68480;DHT22;55469;48.934;12.050;2024-03-23T06:56:25;9.90;99.90
68480;DHT22;55469;48.934;12.050;2024-03-23T06:58:51;9.90;99.90
68480;DHT22;55469;48.934;12.050;2024-03-23T07:01:16;9.90;99.90
68480;DHT22;55469;48.934;12.050;2024-03-23T07:03:42;9.90;99.90
68480;DHT22;55469;48.934;12.050;2024-03-23T07:06:09;9.90;99.90
68480;DHT22;55469;48.934;12.050;2024-03-23T07:08:35;9.90;99.90
68480;DHT22;55469;48.934;12.050;2024-03-23T07:11:01;9.90;99.90
68480;DHT22;55469;48.934;12.050;2024-03-23T07:13:27;9.90;99.90
68480;DHT22;55469;48.934;12.050;2024-03-23T07:15:53;9.90;99.90
68480;DHT22;55469;48.934;12.050;2024-03-23T07:18:21;9.90;99.90
68480;DHT22;55469;48.934;12.050;2024-03-23T07:20:53;9.90;99.90
68480;DHT22;55469;48.934;12.050;2024-03-23T07:23:19;9.90;99.90
68480;DHT22;55469;48.934;12.050;2024-03-23T07:25:45;9.90;99.90
68480;DHT22;55469;48.934;12.050;2024-03-23T07:28:11;9.80;99.90
68480;DHT22;55469;48.934;12.050;2024-03-23T07:30:36;9.80;99.90
68480;DHT22;55469;48.934;12.050;2024-03-23T07:33:02;9.80;99.90
68480;DHT22;55469;48.934;12.050;2024-03-23T07:35:27;9.90;99.90
68480;DHT22;55469;48.934;12.050;2024-03-23T07:37:53;9.90;99.90
68480;DHT22;55469;48.934;12.050;2024-03-23T07:40:19;9.90;99.90
68480;DHT22;55469;48.934;12.050;2024-03-23T07:42:44;9.90;99.90
68480;DHT22;55469;48.934;12.050;2024-03-23T07:45:10;9.90;99.90
68480;DHT22;55469;48.934;12.050;2024-03-23T07:47:35;9.80;99.90
68480;DHT22;55469;48.934;12.050;2024-03-23T07:50:01;9.80;99.90
68480;DHT22;55469;48.934;12.050;2024-03-23T07:52:30;9.90;99.90
68480;DHT22;55469;48.934;12.050;2024-03-23T07:54:56;9.90;99.90
68480;DHT22;55469;48.934;12.050;2024-03-23T07:57:21;9.90;99.90
68480;DHT22;55469;48.934;12.050;2024-03-23T07:59:47;9.80;99.90
68480;DHT22;55469;48.934;12.050;2024-03-23T08:02:12;9.90;99.90
68480;DHT22;55469;48.934;12.050;2024-03-23T08:04:38;9.90;99.90
68480;DHT22;55469;48.934;12.050;2024-03-23T08:07:04;9.80;99.90
68480;DHT22;55469;48.934;12.050;2024-03-23T08:09:29;9.90;99.90
68480;DHT22;55469;48.934;12.050;2024-03-23T08:11:55;9.90;99.90
68480;DHT22;55469;48.934;12.050;2024-03-23T08:14:21;9.80;99.90
68480;DHT22;55469;48.934;12.050;2024-03-23T08:16:46;9.90;99.90
68480;DHT22;55469;48.934;12.050;2024-03-23T08:19:14;9.80;99.90
68480;DHT22;55469;48.934;12.050;2024-03-23T08:21:40;9.80;99.90
68480;DHT22;55469;48.934;12.050;2024-03-23T08:24:06;9.90;99.90
68480;DHT22;55469;48.934;12.050;2024-03-23T08:26:32;9.80;99.90
68480;DHT22;55469;48.934;12.050;2024-03-23T08:28:58;9.80;99.90
68480;DHT22;55469;48.934;12.050;2024-03-23T08:31:23;9.80;99.90
68480;DHT22;55469;48.934;12.050;2024-03-23T08:33:49;9.80;99.90
68480;DHT22;55469;48.934;12.050;2024-03-23T08:36:15;9.80;99.90
68480;DHT22;55469;48.934;12.050;2024-03-23T08:38:40;9.80;99.90
68480;DHT22;55469;48.934;12.050;2024-03-23T08:41:09;9.80;99.90
68480;DHT22;55469;48.934;12.050;2024-03-23T08:43:36;9.80;99.90
68480;DHT22;55469;48.934;12.050;2024-03-23T08:48:32;9.80;99.90
68480;DHT22;55469;48.934;12.050;2024-03-23T08:51:06;9.80;99.90
68480;DHT22;55469;48.934;12.050;2024-03-23T08:53:33;9.80;99.90
68480;DHT22;55469;48.934;12.050;2024-03-23T08:55:59;9.80;99.90
68480;DHT22;55469;48.934;12.050;2024-03-23T08:58:26;9.80;99.90
68480;DHT22;55469;48.934;12.050;2024-03-23T09:00:55;9.80;99.90
68480;DHT22;55469;48.934;12.050;2024-03-23T09:03:25;9.80;99.90
68480;DHT22;55469;48.934;12.050;2024-03-23T09:05:51;9.80;99.90
68480;DHT22;55469;48.934;12.050;2024-03-23T09:08:17;9.80;99.90
68480;DHT22;55469;48.934;12.050;2024-03-23T09:10:43;9.80;99.90
68480;DHT22;55469;48.934;12.050;2024-03-23T09:13:08;9.80;99.90
68480;DHT22;55469;48.934;12.050;2024-03-23T09:15:35;9.80;99.90
68480;DHT22;55469;48.934;12.050;2024-03-23T09:18:01;9.80;99.90
68480;DHT22;55469;48.934;12.050;2024-03-23T09:20:27;9.80;99.90
68480;DHT22;55469;48.934;12.050;2024-03-23T09:22:56;9.80;99.90
68480;DHT22;55469;48.934;12.050;2024-03-23T09:25:21;9.80;99.90
68480;DHT22;55469;48.934;12.050;2024-03-23T09:27:47;9.80;99.90
68480;DHT22;55469;48.934;12.050;2024-03-23T09:30:13;9.80;99.90
68480;DHT22;55469;48.934;12.050;2024-03-23T09:32:39;9.80;99.90
68480;DHT22;55469;48.934;12.050;2024-03-23T09:35:08;9.80;99.90
68480;DHT22;55469;48.934;12.050;2024-03-23T09:37:34;9.80;99.90
68480;DHT22;55469;48.934;12.050;2024-03-23T09:40:00;9.90;99.90
68480;DHT22;55469;48.934;12.050;2024-03-23T09:42:25;9.90;99.90
68480;DHT22;55469;48.934;12.050;2024-03-23T09:44:51;9.90;99.90
68480;DHT22;55469;48.934;12.050;2024-03-23T09:47:17;9.90;99.90
68480;DHT22;55469;48.934;12.050;2024-03-23T09:49:43;9.90;99.90
68480;DHT22;55469;48.934;12.050;2024-03-23T09:52:09;9.90;99.90
68480;DHT22;55469;48.934;12.050;2024-03-23T09:54:35;9.90;99.90
68480;DHT22;55469;48.934;12.050;2024-03-23T09:57:00;9.90;99.90
68480;DHT22;55469;48.934;12.050;2024-03-23T09:59:26;9.90;99.90
68480;DHT22;55469;48.934;12.050;2024-03-23T10:01:52;10.00;99.90
68480;DHT22;55469;48.934;12.050;2024-03-23T10:07:10;9.90;99.90
68480;DHT22;55469;48.934;12.050;2024-03-23T10:09:40;9.90;99.90
68480;DHT22;55469;48.934;12.050;2024-03-23T10:12:12;10.00;99.90
68480;DHT22;55469;48.934;12.050;2024-03-23T10:14:39;9.90;99.90
68480;DHT22;55469;48.934;12.050;2024-03-23T10:17:18;10.00;99.90
68480;DHT22;55469;48.934;12.050;2024-03-23T10:19:55;10.00;99.90
68480;DHT22;55469;48.934;12.050;2024-03-23T10:22:22;10.00;99.90
68480;DHT22;55469;48.934;12.050;2024-03-23T10:24:48;10.00;99.90
68480;DHT22;55469;48.934;12.050;2024-03-23T10:27:18;10.00;99.90
68480;DHT22;55469;48.934;12.050;2024-03-23T10:29:45;10.00;99.90
68480;DHT22;55469;48.934;12.050;2024-03-23T10:32:12;10.00;99.90
68480;DHT22;55469;48.934;12.050;2024-03-23T10:34:38;10.00;99.90
68480;DHT22;55469;48.934;12.050;2024-03-23T10:37:04;10.00;99.90
68480;DHT22;55469;48.934;12.050;2024-03-23T10:39:35;10.00;99.90
68480;DHT22;55469;48.934;12.050;2024-03-23T10:42:02;10.00;99.90
68480;DHT22;55469;48.934;12.050;2024-03-23T10:44:29;10.00;99.90
68480;DHT22;55469;48.934;12.050;2024-03-23T10:46:56;10.00;99.90
68480;DHT22;55469;48.934;12.050;2024-03-23T10:49:30;10.00;99.90
68480;DHT22;55469;48.934;12.050;2024-03-23T10:52:01;10.00;99.90
68480;DHT22;55469;48.934;12.050;2024-03-23T10:54:29;10.00;99.90
68480;DHT22;55469;48.934;12.050;2024-03-23T10:57:06;10.00;99.90
68480;DHT22;55469;48.934;12.050;2024-03-23T10:59:35;10.00;99.90
68480;DHT22;55469;48.934;12.050;2024-03-23T11:02:02;10.00;99.90
68480;DHT22;55469;48.934;12.050;2024-03-23T11:04:34;10.00;99.90
68480;DHT22;55469;48.934;12.050;2024-03-23T11:07:01;10.00;99.90
68480;DHT22;55469;48.934;12.050;2024-03-23T11:09:40;10.00;99.90
68480;DHT22;55469;48.934;12.050;2024-03-23T11:14:47;10.00;99.90
68480;DHT22;55469;48.934;12.050;2024-03-23T11:17:18;10.00;99.90
68480;DHT22;55469;48.934;12.050;2024-03-23T11:19:44;10.00;99.90
68480;DHT22;55469;48.934;12.050;2024-03-23T11:22:09;10.00;99.90
68480;DHT22;55469;48.934;12.050;2024-03-23T11:24:35;10.00;99.90
68480;DHT22;55469;48.934;12.050;2024-03-23T11:27:02;10.00;99.90
68480;DHT22;55469;48.934;12.050;2024-03-23T11:29:29;10.00;99.90
68480;DHT22;55469;48.934;12.050;2024-03-23T11:31:55;10.00;99.90
68480;DHT22;55469;48.934;12.050;2024-03-23T11:34:21;10.00;99.90
68480;DHT22;55469;48.934;12.050;2024-03-23T11:36:47;10.10;99.90
68480;DHT22;55469;48.934;12.050;2024-03-23T11:39:14;10.10;99.90
68480;DHT22;55469;48.934;12.050;2024-03-23T11:41:45;10.10;99.90
68480;DHT22;55469;48.934;12.050;2024-03-23T11:44:15;10.10;99.90
68480;DHT22;55469;48.934;12.050;2024-03-23T11:46:42;10.10;99.90
68480;DHT22;55469;48.934;12.050;2024-03-23T11:49:19;10.10;99.90
68480;DHT22;55469;48.934;12.050;2024-03-23T11:51:48;10.10;99.90
68480;DHT22;55469;48.934;12.050;2024-03-23T11:54:14;10.10;99.90
68480;DHT22;55469;48.934;12.050;2024-03-23T11:56:40;10.10;99.90
68480;DHT22;55469;48.934;12.050;2024-03-23T11:59:09;10.10;99.90
68480;DHT22;55469;48.934;12.050;2024-03-23T12:01:34;10.10;99.90
68480;DHT22;55469;48.934;12.050;2024-03-23T12:04:02;10.10;99.90
68480;DHT22;55469;48.934;12.050;2024-03-23T12:06:28;10.10;99.90
68480;DHT22;55469;48.934;12.050;2024-03-23T12:08:54;10.10;99.90
68480;DHT22;55469;48.934;12.050;2024-03-23T12:11:31;10.10;99.90
68480;DHT22;55469;48.934;12.050;2024-03-23T12:13:56;10.10;99.90
68480;DHT22;55469;48.934;12.050;2024-03-23T12:16:25;10.10;99.90
68480;DHT22;55469;48.934;12.050;2024-03-23T12:18:52;10.10;99.90
68480;DHT22;55469;48.934;12.050;2024-03-23T12:21:18;10.10;99.90
68480;DHT22;55469;48.934;12.050;2024-03-23T12:23:44;10.10;99.90
68480;DHT22;55469;48.934;12.050;2024-03-23T12:26:12;10.20;99.90
68480;DHT22;55469;48.934;12.050;2024-03-23T12:28:38;10.20;99.90
68480;DHT22;55469;48.934;12.050;2024-03-23T12:31:04;10.20;99.90
68480;DHT22;55469;48.934;12.050;2024-03-23T12:33:29;10.20;99.90
68480;DHT22;55469;48.934;12.050;2024-03-23T12:35:55;10.20;99.90
68480;DHT22;55469;48.934;12.050;2024-03-23T12:38:21;10.20;99.90
68480;DHT22;55469;48.934;12.050;2024-03-23T12:40:49;10.20;99.90
68480;DHT22;55469;48.934;12.050;2024-03-23T12:43:15;10.20;99.90
68480;DHT22;55469;48.934;12.050;2024-03-23T12:45:47;10.20;99.90
68480;DHT22;55469;48.934;12.050;2024-03-23T12:48:13;10.10;99.90
68480;DHT22;55469;48.934;12.050;2024-03-23T12:50:38;10.10;99.90
68480;DHT22;55469;48.934;12.050;2024-03-23T12:53:04;10.10;99.90
68480;DHT22;55469;48.934;12.050;2024-03-23T12:55:29;10.20;99.90
68480;DHT22;55469;48.934;12.050;2024-03-23T12:57:55;10.10;99.90
68480;DHT22;55469;48.934;12.050;2024-03-23T13:00:21;10.20;99.90
68480;DHT22;55469;48.934;12.050;2024-03-23T13:02:47;10.20;99.90
68480;DHT22;55469;48.934;12.050;2024-03-23T13:05:12;10.20;99.90
68480;DHT22;55469;48.934;12.050;2024-03-23T13:07:39;10.10;99.90
68480;DHT22;55469;48.934;12.050;2024-03-23T13:10:05;10.20;99.90
68480;DHT22;55469;48.934;12.050;2024-03-23T13:12:31;10.20;99.90
68480;DHT22;55469;48.934;12.050;2024-03-23T13:14:58;10.10;99.90
68480;DHT22;55469;48.934;12.050;2024-03-23T13:17:27;10.10;99.90
68480;DHT22;55469;48.934;12.050;2024-03-23T13:19:53;10.20;99.90
68480;DHT22;55469;48.934;12.050;2024-03-23T13:22:21;10.10;99.90
68480;DHT22;55469;48.934;12.050;2024-03-23T13:24:47;10.20;99.90
68480;DHT22;55469;48.934;12.050;2024-03-23T13:27:13;10.20;99.90
68480;DHT22;55469;48.934;12.050;2024-03-23T13:29:38;10.20;99.90
68480;DHT22;55469;48.934;12.050;2024-03-23T13:32:04;10.20;99.90
68480;DHT22;55469;48.934;12.050;2024-03-23T13:34:31;10.20;99.90
68480;DHT22;55469;48.934;12.050;2024-03-23T13:36:56;10.10;99.90
68480;DHT22;55469;48.934;12.050;2024-03-23T13:39:23;10.20;99.90
68480;DHT22;55469;48.934;12.050;2024-03-23T13:41:49;10.20;99.90
68480;DHT22;55469;48.934;12.050;2024-03-23T13:44:15;10.20;99.90
68480;DHT22;55469;48.934;12.050;2024-03-23T13:46:41;10.20;99.90
68480;DHT22;55469;48.934;12.050;2024-03-23T13:49:24;10.20;99.90
68480;DHT22;55469;48.934;12.050;2024-03-23T13:51:54;10.20;99.90
68480;DHT22;55469;48.934;12.050;2024-03-23T13:54:21;10.20;99.90
68480;DHT22;55469;48.934;12.050;2024-03-23T13:56:50;10.20;99.90
68480;DHT22;55469;48.934;12.050;2024-03-23T13:59:16;10.20;99.90
68480;DHT22;55469;48.934;12.050;2024-03-23T14:01:42;10.20;99.90
68480;DHT22;55469;48.934;12.050;2024-03-23T14:04:11;10.20;99.90
68480;DHT22;55469;48.934;12.050;2024-03-23T14:06:37;10.20;99.90
68480;DHT22;55469;48.934;12.050;2024-03-23T14:09:02;10.20;99.90
68480;DHT22;55469;48.934;12.050;2024-03-23T14:11:29;10.20;99.90
68480;DHT22;55469;48.934;12.050;2024-03-23T14:13:55;10.20;99.90
68480;DHT22;55469;48.934;12.050;2024-03-23T14:16:20;10.20;99.90
68480;DHT22;55469;48.934;12.050;2024-03-23T14:18:46;10.20;99.90
68480;DHT22;55469;48.934;12.050;2024-03-23T14:21:12;10.20;99.90
68480;DHT22;55469;48.934;12.050;2024-03-23T14:23:38;10.20;99.90
68480;DHT22;55469;48.934;12.050;2024-03-23T14:26:06;10.20;99.90
68480;DHT22;55469;48.934;12.050;2024-03-23T14:28:32;10.20;99.90
68480;DHT22;55469;48.934;12.050;2024-03-23T14:30:58;10.20;99.90
68480;DHT22;55469;48.934;12.050;2024-03-23T14:33:24;10.20;99.90
68480;DHT22;55469;48.934;12.050;2024-03-23T14:35:56;10.20;99.90
68480;DHT22;55469;48.934;12.050;2024-03-23T14:38:22;10.20;99.90
68480;DHT22;55469;48.934;12.050;2024-03-23T14:40:48;10.20;99.90
68480;DHT22;55469;48.934;12.050;2024-03-23T14:43:14;10.20;99.90
68480;DHT22;55469;48.934;12.050;2024-03-23T14:48:35;10.20;99.90
68480;DHT22;55469;48.934;12.050;2024-03-23T14:51:01;10.20;99.90
68480;DHT22;55469;48.934;12.050;2024-03-23T14:53:30;10.20;99.90
68480;DHT22;55469;48.934;12.050;2024-03-23T14:55:56;10.20;99.90
68480;DHT22;55469;48.934;12.050;2024-03-23T14:58:22;10.20;99.90
68480;DHT22;55469;48.934;12.050;2024-03-23T15:00:50;10.20;99.90
68480;DHT22;55469;48.934;12.050;2024-03-23T15:03:17;10.20;99.90
68480;DHT22;55469;48.934;12.050;2024-03-23T15:05:52;10.20;99.90
68480;DHT22;55469;48.934;12.050;2024-03-23T15:08:22;10.20;99.90
68480;DHT22;55469;48.934;12.050;2024-03-23T15:10:47;10.20;99.90
68480;DHT22;55469;48.934;12.050;2024-03-23T15:13:13;10.20;99.90
68480;DHT22;55469;48.934;12.050;2024-03-23T15:15:40;10.20;99.90
68480;DHT22;55469;48.934;12.050;2024-03-23T15:18:09;10.20;99.90
68480;DHT22;55469;48.934;12.050;2024-03-23T15:20:40;10.20;99.90
68480;DHT22;55469;48.934;12.050;2024-03-23T15:23:18;10.20;99.90
68480;DHT22;55469;48.934;12.050;2024-03-23T15:25:44;10.20;99.90
68480;DHT22;55469;48.934;12.050;2024-03-23T15:28:10;10.20;99.90
68480;DHT22;55469;48.934;12.050;2024-03-23T15:30:36;10.20;99.90
68480;DHT22;55469;48.934;12.050;2024-03-23T15:33:01;10.20;99.90
68480;DHT22;55469;48.934;12.050;2024-03-23T15:35:27;10.20;99.90
68480;DHT22;55469;48.934;12.050;2024-03-23T15:37:53;10.20;99.90
68480;DHT22;55469;48.934;12.050;2024-03-23T15:40:19;10.20;99.90
68480;DHT22;55469;48.934;12.050;2024-03-23T15:42:44;10.20;99.90
68480;DHT22;55469;48.934;12.050;2024-03-23T15:45:10;10.20;99.90
68480;DHT22;55469;48.934;12.050;2024-03-23T15:47:36;10.20;99.90
68480;DHT22;55469;48.934;12.050;2024-03-23T15:50:02;10.20;99.90
68480;DHT22;55469;48.934;12.050;2024-03-23T15:52:33;10.20;99.90
68480;DHT22;55469;48.934;12.050;2024-03-23T15:55:00;10.20;99.90
68480;DHT22;55469;48.934;12.050;2024-03-23T15:57:26;10.20;99.90
68480;DHT22;55469;48.934;12.050;2024-03-23T15:59:52;10.20;99.90
68480;DHT22;55469;48.934;12.050;2024-03-23T16:02:18;10.20;99.90
68480;DHT22;55469;48.934;12.050;2024-03-23T16:04:43;10.20;99.90
68480;DHT22;55469;48.934;12.050;2024-03-23T16:07:10;10.20;99.90
68480;DHT22;55469;48.934;12.050;2024-03-23T16:09:36;10.20;99.90
68480;DHT22;55469;48.934;12.050;2024-03-23T16:12:03;10.20;99.90
68480;DHT22;55469;48.934;12.050;2024-03-23T16:14:29;10.20;99.90
68480;DHT22;55469;48.934;12.050;2024-03-23T16:16:54;10.20;99.90
68480;DHT22;55469;48.934;12.050;2024-03-23T16:19:20;10.20;99.90